Terminal Aerodrome Forecast
Issued by NWS St Louis, MO

Home | Current Version | Previous Version | Text Only | Print | Product List | Glossary On
Versions: 1 2 3 4 5 6 7 8 9 10 11 12 13 14 15 16 17 18 19 20 21 22 23 24 25 26 27 28
000
FTUS43 KLSX 191700
TAFSTL
TAF
KSTL 191720Z 1918/2024 VRB06KT 6SM -RA SCT050 BKN080
      TEMPO 1919/1922 3SM -RA BR OVC030
     FM192200 28006KT P6SM SCT050 BKN100
     FM200900 30012G20KT P6SM VCSH BKN025
     FM201500 30018G28KT P6SM SCT040=

USA.gov is the U.S. government's official web portal to all federal, state and local government web resources and services.